Ferry Dougo — JD4006 — position and weather

sailwx.info

Track history (hours):
 
Tides and Currents Weather Stations Pressure Air Temp Water Temp Dewpoint Dewpoint Depression Visibility Wind Speed Wind Dir Waves Ship Positions

Ferry Dougo

Last reported at 2018-Jan-20 18:30 UTC. Time now 2018-Jan-20 18:32 UTC.
Position N 34°54' E 139°28'.

Length 191 m; draft 6.8 m.

Type: Passenger vessel. MMSI: 431007905.

Date/timePositionNaut miles runAvg speedWind from/ knotsBaromVisibWave heightAir tempDewpointWater temp
2018-Jan-20 18:30N 34°54' E 139°28'1120.2
2018-Jan-20 17:58N 34°48' E 139°18'919.9
2018-Jan-20 17:29N 34°40' E 139°11'1020.6
2018-Jan-20 17:00N 34°32' E 139°03'1320.7
2018-Jan-20 16:23N 34°24' E 138°51'921.2
2018-Jan-20 15:57N 34°21' E 138°41'921.0
2018-Jan-20 15:30N 34°18' E 138°30'1020.0
2018-Jan-20 15:00N 34°15' E 138°18'16016.6
2018-Jan-20 05:24N 33°39' E 135°11'718.8
2018-Jan-20 05:00N 33°45' E 135°04'918.7
2018-Jan-20 04:31N 33°52' E 134°57'918.7
2018-Jan-20 04:00N 33°57' E 134°48'918.9
2018-Jan-20 03:30N 34°03' E 134°38'2 4.4
2018-Jan-20 03:00N 34°03' E 134°36'0 0.0
2018-Jan-20 02:30N 34°03' E 134°36'0 0.0
2018-Jan-20 02:00N 34°03' E 134°36'0 0.0
2018-Jan-20 01:24N 34°03' E 134°36'0 0.0
2018-Jan-20 00:59N 34°03' E 134°36'713.1
2018-Jan-20 00:29N 33°59' E 134°42'919.6
2018-Jan-20 00:00N 33°53' E 134°50'917.3
2018-Jan-19 23:30N 33°45' E 134°46'13915.8
2018-Jan-19 14:43N 33°09' E 132°05'420.5
2018-Jan-19 14:30N 33°13' E 132°02'1020.0
2018-Jan-19 14:00N 33°22' E 131°56'1019.8
2018-Jan-19 13:30N 33°30' E 131°50'1019.4
2018-Jan-19 13:01N 33°39' E 131°46'917.9
2018-Jan-19 12:31N 33°46' E 131°39'1019.3
2018-Jan-19 12:00N 33°48' E 131°28'918.9
2018-Jan-19 11:30N 33°50' E 131°17'918.2
2018-Jan-19 11:00N 33°53' E 131°06'610.8
2018-Jan-19 10:29N 33°53' E 130°59'0 0.0
2018-Jan-19 09:59N 33°53' E 130°59'0 0.0
2018-Jan-19 09:29N 33°53' E 130°59'0 0.0
2018-Jan-19 08:59N 33°53' E 130°59'0 0.0
2018-Jan-19 08:29N 33°53' E 130°59'0 0.0
2018-Jan-19 07:56N 33°53' E 130°59'0 0.0
2018-Jan-19 07:29N 33°53' E 130°59'0 0.0
2018-Jan-19 06:59N 33°53' E 130°59'0 0.0
2018-Jan-19 06:29N 33°53' E 130°59'0 0.0
2018-Jan-19 05:59N 33°53' E 130°59'0 0.0
2018-Jan-19 05:29N 33°53' E 130°59'0 0.0
2018-Jan-19 04:59N 33°53' E 130°59'0 0.0
2018-Jan-19 04:29N 33°53' E 130°59'0 0.0
2018-Jan-19 03:59N 33°53' E 130°59'0 0.0
2018-Jan-19 03:26N 33°53' E 130°59'0 0.0
2018-Jan-19 02:58N 33°53' E 130°59'0 0.0
2018-Jan-19 02:25N 33°53' E 130°59'0 0.0
2018-Jan-19 01:58N 33°53' E 130°59'0 0.0
2018-Jan-19 01:25N 33°53' E 130°59'0 0.0
2018-Jan-19 00:58N 33°53' E 130°59'0 0.0
2018-Jan-19 00:25N 33°53' E 130°59'0 0.0
2018-Jan-18 23:55N 33°53' E 130°59'0 0.0
2018-Jan-18 23:28N 33°53' E 130°59'0 0.0
2018-Jan-18 22:58N 33°53' E 130°59'0 0.0
2018-Jan-18 22:28N 33°53' E 130°59'0 0.0
2018-Jan-18 21:55N 33°53' E 130°59'0 0.0
2018-Jan-18 21:29N 33°53' E 130°59'0 0.1
2018-Jan-18 21:00N 33°53' E 130°59'4 7.4
2018-Jan-18 20:31N 33°54' E 131°04'815.9
2018-Jan-18 20:01N 33°51' E 131°12'918.9
2018-Jan-18 19:31N 33°50' E 131°24'1019.2
2018-Jan-18 19:01N 33°48' E 131°35'918.5
2018-Jan-18 18:30N 33°44' E 131°45'1019.8
2018-Jan-18 18:00N 33°35' E 131°50'1019.4
2018-Jan-18 17:30N 33°26' E 131°55'918.5
2018-Jan-18 17:00N 33°18' E 132°01'918.3
2018-Jan-18 16:29N 33°10' E 132°08'13215.3
2018-Jan-18 07:50N 33°39' E 134°42'619.2
2018-Jan-18 07:30N 33°44' E 134°46'918.1
2018-Jan-18 07:00N 33°53' E 134°50'1019.9
2018-Jan-18 06:29N 34°01' E 134°42'611.5
2018-Jan-18 05:58N 34°03' E 134°36'0 0.0
2018-Jan-18 05:26N 34°03' E 134°36'0 0.0
2018-Jan-18 04:59N 34°03' E 134°36'510.5
2018-Jan-18 04:30N 34°01' E 134°41'1120.7
2018-Jan-18 03:58N 33°54' E 134°51'1020.8
2018-Jan-18 03:30N 33°47' E 134°60'  
2018-Jan-12 14:36N 34°27' E 138°44'220.1
2018-Jan-12 14:30N 34°26' E 138°42'1120.4
2018-Jan-12 13:58N 34°23' E 138°29'1020.0
2018-Jan-12 13:28N 34°21' E 138°17'1119.7
2018-Jan-12 12:55N 34°19' E 138°04'14118.4
2018-Jan-12 05:14N 33°31' E 135°25'920.8
2018-Jan-12 04:50N 33°36' E 135°17'720.6
2018-Jan-12 04:29N 33°40' E 135°10'1020.6
2018-Jan-12 03:59N 33°47' E 135°01'1020.5
2018-Jan-12 03:30N 33°54' E 134°52'1020.5
2018-Jan-12 03:00N 34°00' E 134°42'612.2
2018-Jan-12 02:30N 34°03' E 134°36'0 0.0
2018-Jan-12 01:56N 34°03' E 134°36'0 0.0
2018-Jan-12 01:14N 34°03' E 134°36'0 0.0
2018-Jan-12 00:56N 34°03' E 134°36'0 0.4
2018-Jan-12 00:28N 34°03' E 134°36'714.8
2018-Jan-12 00:00N 33°59' E 134°43'1018.4
2018-Jan-11 23:28N 33°52' E 134°51'1217.9
2018-Jan-11 22:47N 33°41' E 134°44'13715.5
2018-Jan-11 13:55N 33°13' E 132°03'820.3
2018-Jan-11 13:30N 33°20' E 131°57'1020.2
2018-Jan-11 13:00N 33°29' E 131°52'1020.1
2018-Jan-11 12:30N 33°38' E 131°47'1019.1
2018-Jan-11 12:00N 33°46' E 131°40'1019.8
2018-Jan-11 11:30N 33°48' E 131°29'1019.4
2018-Jan-11 11:00N 33°50' E 131°17'918.8
2018-Jan-11 10:30N 33°53' E 131°07'611.9
2018-Jan-11 10:00N 33°53' E 130°59'0 0.0
2018-Jan-11 09:27N 33°53' E 130°59'0 0.0
2018-Jan-11 09:00N 33°53' E 130°59'0 0.0
2018-Jan-11 08:27N 33°53' E 130°59'0 0.0
2018-Jan-11 08:00N 33°53' E 130°59'0 0.0
2018-Jan-11 07:27N 33°53' E 130°59'0 0.0
2018-Jan-11 07:00N 33°53' E 130°59'0 0.0
2018-Jan-11 06:21N 33°53' E 130°59'0 0.0
2018-Jan-11 06:00N 33°53' E 130°59'0 0.0
2018-Jan-11 05:30N 33°53' E 130°59'0 0.0
2018-Jan-11 05:00N 33°53' E 130°59'0 0.0
2018-Jan-11 04:30N 33°53' E 130°59'0 0.0
2018-Jan-11 04:00N 33°53' E 130°59'0 0.0
2018-Jan-11 03:30N 33°53' E 130°59'0 0.0
2018-Jan-11 03:00N 33°53' E 130°59'0 0.0
2018-Jan-11 02:27N 33°53' E 130°59'0 0.0
2018-Jan-11 02:00N 33°53' E 130°59'0 0.0
2018-Jan-11 01:27N 33°53' E 130°59'0 0.0
2018-Jan-11 01:00N 33°53' E 130°59'0 0.0
2018-Jan-11 00:27N 33°53' E 130°59'0 0.0
2018-Jan-11 00:00N 33°53' E 130°59'0 0.0
2018-Jan-10 23:27N 33°53' E 130°59'0 0.0
2018-Jan-10 23:00N 33°53' E 130°59'0 0.0
2018-Jan-10 22:30N 33°53' E 130°59'0 0.8
2018-Jan-10 22:01N 33°52' E 130°60'611.6
2018-Jan-10 21:30N 33°53' E 131°06'917.5
2018-Jan-10 21:00N 33°51' E 131°17'1019.6
2018-Jan-10 20:30N 33°49' E 131°28'1019.5
2018-Jan-10 20:01N 33°46' E 131°39'1019.2
2018-Jan-10 19:31N 33°40' E 131°48'1019.7
2018-Jan-10 19:00N 33°31' E 131°54'1019.9
2018-Jan-10 18:30N 33°22' E 131°58'  
Track history (hours):
 
Tides and Currents Weather Stations Pressure Air Temp Water Temp Dewpoint Dewpoint Depression Visibility Wind Speed Wind Dir Waves Ship Positions

Ferry Dougo

Last reported at 2018-Jan-20 18:30 UTC. Time now 2018-Jan-20 18:32 UTC.
Position N 34°54' E 139°28'.

Length 191 m; draft 6.8 m.

Type: Passenger vessel. MMSI: 431007905.

Date/timePositionNaut miles runAvg speedWind from/ knotsBaromVisibWave heightAir tempDewpointWater temp
2018-Jan-20 18:30N 34°54' E 139°28'1120.2
2018-Jan-20 17:58N 34°48' E 139°18'919.9
2018-Jan-20 17:29N 34°40' E 139°11'1020.6
2018-Jan-20 17:00N 34°32' E 139°03'1320.7
2018-Jan-20 16:23N 34°24' E 138°51'921.2
2018-Jan-20 15:57N 34°21' E 138°41'921.0
2018-Jan-20 15:30N 34°18' E 138°30'1020.0
2018-Jan-20 15:00N 34°15' E 138°18'16016.6
2018-Jan-20 05:24N 33°39' E 135°11'718.8
2018-Jan-20 05:00N 33°45' E 135°04'918.7
2018-Jan-20 04:31N 33°52' E 134°57'918.7
2018-Jan-20 04:00N 33°57' E 134°48'918.9
2018-Jan-20 03:30N 34°03' E 134°38'2 4.4
2018-Jan-20 03:00N 34°03' E 134°36'0 0.0
2018-Jan-20 02:30N 34°03' E 134°36'0 0.0
2018-Jan-20 02:00N 34°03' E 134°36'0 0.0
2018-Jan-20 01:24N 34°03' E 134°36'0 0.0
2018-Jan-20 00:59N 34°03' E 134°36'713.1
2018-Jan-20 00:29N 33°59' E 134°42'919.6
2018-Jan-20 00:00N 33°53' E 134°50'917.3
2018-Jan-19 23:30N 33°45' E 134°46'13915.8
2018-Jan-19 14:43N 33°09' E 132°05'420.5
2018-Jan-19 14:30N 33°13' E 132°02'1020.0
2018-Jan-19 14:00N 33°22' E 131°56'1019.8
2018-Jan-19 13:30N 33°30' E 131°50'1019.4
2018-Jan-19 13:01N 33°39' E 131°46'917.9
2018-Jan-19 12:31N 33°46' E 131°39'1019.3
2018-Jan-19 12:00N 33°48' E 131°28'918.9
2018-Jan-19 11:30N 33°50' E 131°17'918.2
2018-Jan-19 11:00N 33°53' E 131°06'610.8
2018-Jan-19 10:29N 33°53' E 130°59'0 0.0
2018-Jan-19 09:59N 33°53' E 130°59'0 0.0
2018-Jan-19 09:29N 33°53' E 130°59'0 0.0
2018-Jan-19 08:59N 33°53' E 130°59'0 0.0
2018-Jan-19 08:29N 33°53' E 130°59'0 0.0
2018-Jan-19 07:56N 33°53' E 130°59'0 0.0
2018-Jan-19 07:29N 33°53' E 130°59'0 0.0
2018-Jan-19 06:59N 33°53' E 130°59'0 0.0
2018-Jan-19 06:29N 33°53' E 130°59'0 0.0
2018-Jan-19 05:59N 33°53' E 130°59'0 0.0
2018-Jan-19 05:29N 33°53' E 130°59'0 0.0
2018-Jan-19 04:59N 33°53' E 130°59'0 0.0
2018-Jan-19 04:29N 33°53' E 130°59'0 0.0
2018-Jan-19 03:59N 33°53' E 130°59'0 0.0
2018-Jan-19 03:26N 33°53' E 130°59'0 0.0
2018-Jan-19 02:58N 33°53' E 130°59'0 0.0
2018-Jan-19 02:25N 33°53' E 130°59'0 0.0
2018-Jan-19 01:58N 33°53' E 130°59'0 0.0
2018-Jan-19 01:25N 33°53' E 130°59'0 0.0
2018-Jan-19 00:58N 33°53' E 130°59'0 0.0
2018-Jan-19 00:25N 33°53' E 130°59'0 0.0
2018-Jan-18 23:55N 33°53' E 130°59'0 0.0
2018-Jan-18 23:28N 33°53' E 130°59'0 0.0
2018-Jan-18 22:58N 33°53' E 130°59'0 0.0
2018-Jan-18 22:28N 33°53' E 130°59'0 0.0
2018-Jan-18 21:55N 33°53' E 130°59'0 0.0
2018-Jan-18 21:29N 33°53' E 130°59'0 0.1
2018-Jan-18 21:00N 33°53' E 130°59'4 7.4
2018-Jan-18 20:31N 33°54' E 131°04'815.9
2018-Jan-18 20:01N 33°51' E 131°12'918.9
2018-Jan-18 19:31N 33°50' E 131°24'1019.2
2018-Jan-18 19:01N 33°48' E 131°35'918.5
2018-Jan-18 18:30N 33°44' E 131°45'1019.8
2018-Jan-18 18:00N 33°35' E 131°50'1019.4
2018-Jan-18 17:30N 33°26' E 131°55'918.5
2018-Jan-18 17:00N 33°18' E 132°01'918.3
2018-Jan-18 16:29N 33°10' E 132°08'13215.3
2018-Jan-18 07:50N 33°39' E 134°42'619.2
2018-Jan-18 07:30N 33°44' E 134°46'918.1
2018-Jan-18 07:00N 33°53' E 134°50'1019.9
2018-Jan-18 06:29N 34°01' E 134°42'611.5
2018-Jan-18 05:58N 34°03' E 134°36'0 0.0
2018-Jan-18 05:26N 34°03' E 134°36'0 0.0
2018-Jan-18 04:59N 34°03' E 134°36'510.5
2018-Jan-18 04:30N 34°01' E 134°41'1120.7
2018-Jan-18 03:58N 33°54' E 134°51'1020.8
2018-Jan-18 03:30N 33°47' E 134°60'  
2018-Jan-12 14:36N 34°27' E 138°44'220.1
2018-Jan-12 14:30N 34°26' E 138°42'1120.4
2018-Jan-12 13:58N 34°23' E 138°29'1020.0
2018-Jan-12 13:28N 34°21' E 138°17'1119.7
2018-Jan-12 12:55N 34°19' E 138°04'14118.4
2018-Jan-12 05:14N 33°31' E 135°25'920.8
2018-Jan-12 04:50N 33°36' E 135°17'720.6
2018-Jan-12 04:29N 33°40' E 135°10'1020.6
2018-Jan-12 03:59N 33°47' E 135°01'1020.5
2018-Jan-12 03:30N 33°54' E 134°52'1020.5
2018-Jan-12 03:00N 34°00' E 134°42'612.2
2018-Jan-12 02:30N 34°03' E 134°36'0 0.0
2018-Jan-12 01:56N 34°03' E 134°36'0 0.0
2018-Jan-12 01:14N 34°03' E 134°36'0 0.0
2018-Jan-12 00:56N 34°03' E 134°36'0 0.4
2018-Jan-12 00:28N 34°03' E 134°36'714.8
2018-Jan-12 00:00N 33°59' E 134°43'1018.4
2018-Jan-11 23:28N 33°52' E 134°51'1217.9
2018-Jan-11 22:47N 33°41' E 134°44'13715.5
2018-Jan-11 13:55N 33°13' E 132°03'820.3
2018-Jan-11 13:30N 33°20' E 131°57'1020.2
2018-Jan-11 13:00N 33°29' E 131°52'1020.1
2018-Jan-11 12:30N 33°38' E 131°47'1019.1
2018-Jan-11 12:00N 33°46' E 131°40'1019.8
2018-Jan-11 11:30N 33°48' E 131°29'1019.4
2018-Jan-11 11:00N 33°50' E 131°17'918.8
2018-Jan-11 10:30N 33°53' E 131°07'611.9
2018-Jan-11 10:00N 33°53' E 130°59'0 0.0
2018-Jan-11 09:27N 33°53' E 130°59'0 0.0
2018-Jan-11 09:00N 33°53' E 130°59'0 0.0
2018-Jan-11 08:27N 33°53' E 130°59'0 0.0
2018-Jan-11 08:00N 33°53' E 130°59'0 0.0
2018-Jan-11 07:27N 33°53' E 130°59'0 0.0
2018-Jan-11 07:00N 33°53' E 130°59'0 0.0
2018-Jan-11 06:21N 33°53' E 130°59'0 0.0
2018-Jan-11 06:00N 33°53' E 130°59'0 0.0
2018-Jan-11 05:30N 33°53' E 130°59'0 0.0
2018-Jan-11 05:00N 33°53' E 130°59'0 0.0
2018-Jan-11 04:30N 33°53' E 130°59'0 0.0
2018-Jan-11 04:00N 33°53' E 130°59'0 0.0
2018-Jan-11 03:30N 33°53' E 130°59'0 0.0
2018-Jan-11 03:00N 33°53' E 130°59'0 0.0
2018-Jan-11 02:27N 33°53' E 130°59'0 0.0
2018-Jan-11 02:00N 33°53' E 130°59'0 0.0
2018-Jan-11 01:27N 33°53' E 130°59'0 0.0
2018-Jan-11 01:00N 33°53' E 130°59'0 0.0
2018-Jan-11 00:27N 33°53' E 130°59'0 0.0
2018-Jan-11 00:00N 33°53' E 130°59'0 0.0
2018-Jan-10 23:27N 33°53' E 130°59'0 0.0
2018-Jan-10 23:00N 33°53' E 130°59'0 0.0
2018-Jan-10 22:30N 33°53' E 130°59'0 0.8
2018-Jan-10 22:01N 33°52' E 130°60'611.6
2018-Jan-10 21:30N 33°53' E 131°06'917.5
2018-Jan-10 21:00N 33°51' E 131°17'1019.6
2018-Jan-10 20:30N 33°49' E 131°28'1019.5
2018-Jan-10 20:01N 33°46' E 131°39'1019.2
2018-Jan-10 19:31N 33°40' E 131°48'1019.7
2018-Jan-10 19:00N 33°31' E 131°54'1019.9
2018-Jan-10 18:30N 33°22' E 131°58'  

Dump ship's entire track history